New Mingzhou66 — VRQE8 — position and weather

sailwx.info

Track history (hours):
 
Tides and Currents Weather Stations Pressure Air Temp Water Temp Dewpoint Dewpoint Depression Visibility Wind Speed Wind Dir Waves Ship Positions

New Mingzhou66

Last reported at 2018-Feb-21 12:06 UTC. Time now 2018-Feb-21 13:17 UTC.
Position N 30°29' E 122°06'.

Length 148 m; draft 7.2 m.

Type: Cargo ship. MMSI: 477439900.

Date/timePositionNaut miles runAvg speedWind from/ knotsBaromVisibWave heightAir tempDewpointWater temp
2018-Feb-21 12:06N 30°29' E 122°06'112.4
2018-Feb-21 11:59N 30°29' E 122°08'43115.8
2018-Feb-20 08:36N 33°37' E 129°46'715.8
2018-Feb-20 08:08N 33°40' E 129°54'216.1
2018-Feb-20 08:00N 33°41' E 129°56'815.7
2018-Feb-20 07:30N 33°45' E 130°04'815.7
2018-Feb-20 07:00N 33°50' E 130°12'815.5
2018-Feb-20 06:31N 33°54' E 130°20'815.5
2018-Feb-20 06:01N 33°58' E 130°28'815.5
2018-Feb-20 05:30N 34°01' E 130°37'815.8
2018-Feb-20 05:01N 34°03' E 130°46'714.2
2018-Feb-20 04:31N 33°59' E 130°53'4 7.3
2018-Feb-20 04:00N 33°56' E 130°56'611.4
2018-Feb-20 03:30N 33°57' E 131°03'714.4
2018-Feb-20 03:00N 33°53' E 131°10'815.7
2018-Feb-20 02:30N 33°51' E 131°19'816.2
2018-Feb-20 02:00N 33°49' E 131°28'816.2
2018-Feb-20 01:31N 33°47' E 131°38'815.3
2018-Feb-20 01:01N 33°43' E 131°45'816.7
2018-Feb-20 00:30N 33°35' E 131°50'816.4
2018-Feb-20 00:00N 33°28' E 131°54'917.5
2018-Feb-19 23:30N 33°20' E 131°59'1016.7
2018-Feb-19 22:54N 33°12' E 132°06'6011.8
2018-Feb-19 17:47N 32°49' E 133°12'516.6
2018-Feb-19 17:29N 32°52' E 133°17'24115.9
2018-Feb-19 02:19N 34°09' E 137°51'515.3
2018-Feb-19 02:00N 34°10' E 137°56'815.1
2018-Feb-19 01:30N 34°13' E 138°05'814.9
2018-Feb-19 01:00N 34°16' E 138°13'714.7
2018-Feb-19 00:29N 34°19' E 138°21'714.7
2018-Feb-19 00:00N 34°22' E 138°29'714.5
2018-Feb-18 23:29N 34°26' E 138°37'714.6
2018-Feb-18 23:00N 34°29' E 138°45'815.5
2018-Feb-18 22:30N 34°32' E 138°54'916.6
2018-Feb-18 21:59N 34°37' E 139°02'1016.7
2018-Feb-18 21:24N 34°44' E 139°10'615.6
2018-Feb-18 21:00N 34°49' E 139°15'714.9
2018-Feb-18 20:30N 34°54' E 139°21'815.2
2018-Feb-18 20:00N 34°59' E 139°29'815.5
2018-Feb-18 19:30N 35°03' E 139°36'815.8
2018-Feb-18 19:00N 35°08' E 139°43'714.3
2018-Feb-18 18:30N 35°15' E 139°46'612.7
2018-Feb-18 18:00N 35°21' E 139°42'713.6
2018-Feb-18 17:31N 35°27' E 139°47'713.9
2018-Feb-18 17:00N 35°33' E 139°51'511.0
2018-Feb-18 16:30N 35°37' E 139°46'0 0.1
2018-Feb-18 16:00N 35°37' E 139°46'0 0.0
2018-Feb-18 15:30N 35°37' E 139°46'0 0.0
2018-Feb-18 14:54N 35°37' E 139°46'0 0.0
2018-Feb-18 14:27N 35°37' E 139°46'0 0.1
2018-Feb-18 13:57N 35°37' E 139°46'0 0.0
2018-Feb-18 13:27N 35°37' E 139°46'0 0.1
2018-Feb-18 12:48N 35°37' E 139°46'0 0.2
2018-Feb-18 12:30N 35°37' E 139°46'0 0.1
2018-Feb-18 11:45N 35°37' E 139°46'0 0.0
2018-Feb-18 11:27N 35°37' E 139°46'0 0.0
2018-Feb-18 10:57N 35°37' E 139°46'0 0.0
2018-Feb-18 10:24N 35°37' E 139°46'0 0.0
2018-Feb-18 10:00N 35°37' E 139°46'0 0.3
2018-Feb-18 09:30N 35°37' E 139°46'4 7.5
2018-Feb-18 09:00N 35°34' E 139°49'510.5
2018-Feb-18 08:30N 35°29' E 139°52'612.5
2018-Feb-18 08:00N 35°26' E 139°45'3 5.9
2018-Feb-18 07:30N 35°28' E 139°42'0 0.0
2018-Feb-18 06:59N 35°28' E 139°42'0 0.0
2018-Feb-18 06:29N 35°28' E 139°42'0 0.0
2018-Feb-18 05:59N 35°28' E 139°42'0 0.0
2018-Feb-18 05:29N 35°28' E 139°42'0 0.0
2018-Feb-18 04:59N 35°28' E 139°42'0 0.0
2018-Feb-18 04:29N 35°28' E 139°42'0 0.0
2018-Feb-18 03:59N 35°28' E 139°42'0 0.0
2018-Feb-18 03:29N 35°28' E 139°42'0 0.0
2018-Feb-18 02:59N 35°28' E 139°42'0 0.0
2018-Feb-18 02:29N 35°28' E 139°42'0 0.0
2018-Feb-18 01:59N 35°28' E 139°42'0 0.0
2018-Feb-18 01:26N 35°28' E 139°42'0 0.0
2018-Feb-18 00:59N 35°28' E 139°42'0 0.0
2018-Feb-18 00:29N 35°28' E 139°42'0 0.5
2018-Feb-18 00:00N 35°28' E 139°42'3 6.4
2018-Feb-17 23:30N 35°26' E 139°45'4 8.2
2018-Feb-17 23:00N 35°22' E 139°45'4 8.7
2018-Feb-17 22:30N 35°17' E 139°45'5 9.2
2018-Feb-17 22:00N 35°13' E 139°47'511.0
2018-Feb-17 21:30N 35°08' E 139°45'714.1
2018-Feb-17 21:00N 35°02' E 139°40'714.9
2018-Feb-17 20:30N 34°57' E 139°33'815.6
2018-Feb-17 20:00N 34°53' E 139°25'815.6
2018-Feb-17 19:30N 34°48' E 139°17'1014.9
2018-Feb-17 18:49N 34°41' E 139°09'514.6
2018-Feb-17 18:30N 34°37' E 139°05'714.6
2018-Feb-17 18:01N 34°33' E 138°58'915.9
2018-Feb-17 17:27N 34°32' E 138°48'715.5
2018-Feb-17 17:00N 34°33' E 138°39'815.8
2018-Feb-17 16:30N 34°33' E 138°30'815.9
2018-Feb-17 15:59N 34°33' E 138°20'816.6
2018-Feb-17 15:30N 34°33' E 138°10'916.5
2018-Feb-17 14:59N 34°33' E 137°59'715.8
2018-Feb-17 14:30N 34°33' E 137°50'3115.7
2018-Feb-17 12:31N 34°32' E 137°12'2013.5
2018-Feb-17 11:01N 34°40' E 136°50'015.5
2018-Feb-17 11:00N 34°40' E 136°49'611.1
2018-Feb-17 10:27N 34°45' E 136°45'1 1.5
2018-Feb-17 10:00N 34°46' E 136°45'1 1.4
2018-Feb-17 09:31N 34°46' E 136°45'1 1.4
2018-Feb-17 09:00N 34°47' E 136°44'1 1.7
2018-Feb-17 08:30N 34°48' E 136°45'611.4
2018-Feb-17 08:00N 34°54' E 136°46'713.2
2018-Feb-17 07:30N 35°00' E 136°47'1 2.9
2018-Feb-17 07:00N 35°01' E 136°48'0 0.0
2018-Feb-17 06:29N 35°01' E 136°48'0 0.0
2018-Feb-17 05:59N 35°01' E 136°48'0 0.0
2018-Feb-17 05:29N 35°01' E 136°48'0 0.0
2018-Feb-17 04:59N 35°01' E 136°48'0 0.0
2018-Feb-17 04:29N 35°01' E 136°48'0 0.0
2018-Feb-17 03:59N 35°01' E 136°48'0 0.0
2018-Feb-17 03:29N 35°01' E 136°48'0 0.0
2018-Feb-17 02:59N 35°01' E 136°48'0 0.0
2018-Feb-17 02:29N 35°01' E 136°48'0 0.0
2018-Feb-17 01:59N 35°01' E 136°48'0 0.0
2018-Feb-17 01:29N 35°01' E 136°48'0 0.0
2018-Feb-17 00:59N 35°01' E 136°48'0 0.0
2018-Feb-17 00:29N 35°01' E 136°48'0 0.0
2018-Feb-16 23:59N 35°01' E 136°48'0 0.0
2018-Feb-16 23:29N 35°01' E 136°48'0 0.0
2018-Feb-16 22:59N 35°01' E 136°48'0 0.0
2018-Feb-16 22:29N 35°01' E 136°48'0 1.0
2018-Feb-16 22:00N 35°01' E 136°48'4 8.6
2018-Feb-16 21:31N 34°57' E 136°46'713.5
2018-Feb-16 21:00N 34°51' E 136°47'713.9
2018-Feb-16 20:31N 34°44' E 136°47'3 5.5
2018-Feb-16 20:00N 34°41' E 136°47'0 0.4
2018-Feb-16 19:30N 34°41' E 136°47'0 0.5
2018-Feb-16 19:00N 34°41' E 136°47'4 8.2
2018-Feb-16 18:30N 34°40' E 136°52'814.5
2018-Feb-16 17:59N 34°35' E 136°59'611.7
2018-Feb-16 17:30N 34°30' E 137°02'2414.6
2018-Feb-16 15:52N 34°08' E 136°49'616.3
2018-Feb-16 15:30N 34°04' E 136°43'1016.0
2018-Feb-16 14:52N 33°57' E 136°34'1515.2
2018-Feb-16 13:51N 33°46' E 136°22'75915.1
2018-Feb-14 11:44N 30°26' E 121°57'814.5
2018-Feb-14 11:13N 30°22' E 121°50'313.8
2018-Feb-14 10:58N 30°19' E 121°48'715.2
2018-Feb-14 10:29N 30°12' E 121°48'4 0.1
2018-Feb-12 21:37N 30°15' E 121°46'0 0.2
2018-Feb-12 21:25N 30°15' E 121°46'19 1.5
2018-Feb-12 08:52N 30°31' E 121°34'8 0.7
2018-Feb-11 21:20N 30°26' E 121°42'0 1.5
2018-Feb-11 21:00N 30°26' E 121°42'1 1.2
2018-Feb-11 20:30N 30°26' E 121°43'1 2.0
2018-Feb-11 20:00N 30°27' E 121°42'2 4.4
2018-Feb-11 19:28N 30°29' E 121°43'613.0
2018-Feb-11 18:59N 30°31' E 121°50'612.9
2018-Feb-11 18:30N 30°31' E 121°58'613.0
2018-Feb-11 18:00N 30°32' E 122°05'5 9.4
2018-Feb-11 17:30N 30°33' E 122°10'1612.3
2018-Feb-11 16:09N 30°35' E 122°30'  
Track history (hours):
 
Tides and Currents Weather Stations Pressure Air Temp Water Temp Dewpoint Dewpoint Depression Visibility Wind Speed Wind Dir Waves Ship Positions

New Mingzhou66

Last reported at 2018-Feb-21 12:06 UTC. Time now 2018-Feb-21 13:17 UTC.
Position N 30°29' E 122°06'.

Length 148 m; draft 7.2 m.

Type: Cargo ship. MMSI: 477439900.

Date/timePositionNaut miles runAvg speedWind from/ knotsBaromVisibWave heightAir tempDewpointWater temp
2018-Feb-21 12:06N 30°29' E 122°06'112.4
2018-Feb-21 11:59N 30°29' E 122°08'43115.8
2018-Feb-20 08:36N 33°37' E 129°46'715.8
2018-Feb-20 08:08N 33°40' E 129°54'216.1
2018-Feb-20 08:00N 33°41' E 129°56'815.7
2018-Feb-20 07:30N 33°45' E 130°04'815.7
2018-Feb-20 07:00N 33°50' E 130°12'815.5
2018-Feb-20 06:31N 33°54' E 130°20'815.5
2018-Feb-20 06:01N 33°58' E 130°28'815.5
2018-Feb-20 05:30N 34°01' E 130°37'815.8
2018-Feb-20 05:01N 34°03' E 130°46'714.2
2018-Feb-20 04:31N 33°59' E 130°53'4 7.3
2018-Feb-20 04:00N 33°56' E 130°56'611.4
2018-Feb-20 03:30N 33°57' E 131°03'714.4
2018-Feb-20 03:00N 33°53' E 131°10'815.7
2018-Feb-20 02:30N 33°51' E 131°19'816.2
2018-Feb-20 02:00N 33°49' E 131°28'816.2
2018-Feb-20 01:31N 33°47' E 131°38'815.3
2018-Feb-20 01:01N 33°43' E 131°45'816.7
2018-Feb-20 00:30N 33°35' E 131°50'816.4
2018-Feb-20 00:00N 33°28' E 131°54'917.5
2018-Feb-19 23:30N 33°20' E 131°59'1016.7
2018-Feb-19 22:54N 33°12' E 132°06'6011.8
2018-Feb-19 17:47N 32°49' E 133°12'516.6
2018-Feb-19 17:29N 32°52' E 133°17'24115.9
2018-Feb-19 02:19N 34°09' E 137°51'515.3
2018-Feb-19 02:00N 34°10' E 137°56'815.1
2018-Feb-19 01:30N 34°13' E 138°05'814.9
2018-Feb-19 01:00N 34°16' E 138°13'714.7
2018-Feb-19 00:29N 34°19' E 138°21'714.7
2018-Feb-19 00:00N 34°22' E 138°29'714.5
2018-Feb-18 23:29N 34°26' E 138°37'714.6
2018-Feb-18 23:00N 34°29' E 138°45'815.5
2018-Feb-18 22:30N 34°32' E 138°54'916.6
2018-Feb-18 21:59N 34°37' E 139°02'1016.7
2018-Feb-18 21:24N 34°44' E 139°10'615.6
2018-Feb-18 21:00N 34°49' E 139°15'714.9
2018-Feb-18 20:30N 34°54' E 139°21'815.2
2018-Feb-18 20:00N 34°59' E 139°29'815.5
2018-Feb-18 19:30N 35°03' E 139°36'815.8
2018-Feb-18 19:00N 35°08' E 139°43'714.3
2018-Feb-18 18:30N 35°15' E 139°46'612.7
2018-Feb-18 18:00N 35°21' E 139°42'713.6
2018-Feb-18 17:31N 35°27' E 139°47'713.9
2018-Feb-18 17:00N 35°33' E 139°51'511.0
2018-Feb-18 16:30N 35°37' E 139°46'0 0.1
2018-Feb-18 16:00N 35°37' E 139°46'0 0.0
2018-Feb-18 15:30N 35°37' E 139°46'0 0.0
2018-Feb-18 14:54N 35°37' E 139°46'0 0.0
2018-Feb-18 14:27N 35°37' E 139°46'0 0.1
2018-Feb-18 13:57N 35°37' E 139°46'0 0.0
2018-Feb-18 13:27N 35°37' E 139°46'0 0.1
2018-Feb-18 12:48N 35°37' E 139°46'0 0.2
2018-Feb-18 12:30N 35°37' E 139°46'0 0.1
2018-Feb-18 11:45N 35°37' E 139°46'0 0.0
2018-Feb-18 11:27N 35°37' E 139°46'0 0.0
2018-Feb-18 10:57N 35°37' E 139°46'0 0.0
2018-Feb-18 10:24N 35°37' E 139°46'0 0.0
2018-Feb-18 10:00N 35°37' E 139°46'0 0.3
2018-Feb-18 09:30N 35°37' E 139°46'4 7.5
2018-Feb-18 09:00N 35°34' E 139°49'510.5
2018-Feb-18 08:30N 35°29' E 139°52'612.5
2018-Feb-18 08:00N 35°26' E 139°45'3 5.9
2018-Feb-18 07:30N 35°28' E 139°42'0 0.0
2018-Feb-18 06:59N 35°28' E 139°42'0 0.0
2018-Feb-18 06:29N 35°28' E 139°42'0 0.0
2018-Feb-18 05:59N 35°28' E 139°42'0 0.0
2018-Feb-18 05:29N 35°28' E 139°42'0 0.0
2018-Feb-18 04:59N 35°28' E 139°42'0 0.0
2018-Feb-18 04:29N 35°28' E 139°42'0 0.0
2018-Feb-18 03:59N 35°28' E 139°42'0 0.0
2018-Feb-18 03:29N 35°28' E 139°42'0 0.0
2018-Feb-18 02:59N 35°28' E 139°42'0 0.0
2018-Feb-18 02:29N 35°28' E 139°42'0 0.0
2018-Feb-18 01:59N 35°28' E 139°42'0 0.0
2018-Feb-18 01:26N 35°28' E 139°42'0 0.0
2018-Feb-18 00:59N 35°28' E 139°42'0 0.0
2018-Feb-18 00:29N 35°28' E 139°42'0 0.5
2018-Feb-18 00:00N 35°28' E 139°42'3 6.4
2018-Feb-17 23:30N 35°26' E 139°45'4 8.2
2018-Feb-17 23:00N 35°22' E 139°45'4 8.7
2018-Feb-17 22:30N 35°17' E 139°45'5 9.2
2018-Feb-17 22:00N 35°13' E 139°47'511.0
2018-Feb-17 21:30N 35°08' E 139°45'714.1
2018-Feb-17 21:00N 35°02' E 139°40'714.9
2018-Feb-17 20:30N 34°57' E 139°33'815.6
2018-Feb-17 20:00N 34°53' E 139°25'815.6
2018-Feb-17 19:30N 34°48' E 139°17'1014.9
2018-Feb-17 18:49N 34°41' E 139°09'514.6
2018-Feb-17 18:30N 34°37' E 139°05'714.6
2018-Feb-17 18:01N 34°33' E 138°58'915.9
2018-Feb-17 17:27N 34°32' E 138°48'715.5
2018-Feb-17 17:00N 34°33' E 138°39'815.8
2018-Feb-17 16:30N 34°33' E 138°30'815.9
2018-Feb-17 15:59N 34°33' E 138°20'816.6
2018-Feb-17 15:30N 34°33' E 138°10'916.5
2018-Feb-17 14:59N 34°33' E 137°59'715.8
2018-Feb-17 14:30N 34°33' E 137°50'3115.7
2018-Feb-17 12:31N 34°32' E 137°12'2013.5
2018-Feb-17 11:01N 34°40' E 136°50'015.5
2018-Feb-17 11:00N 34°40' E 136°49'611.1
2018-Feb-17 10:27N 34°45' E 136°45'1 1.5
2018-Feb-17 10:00N 34°46' E 136°45'1 1.4
2018-Feb-17 09:31N 34°46' E 136°45'1 1.4
2018-Feb-17 09:00N 34°47' E 136°44'1 1.7
2018-Feb-17 08:30N 34°48' E 136°45'611.4
2018-Feb-17 08:00N 34°54' E 136°46'713.2
2018-Feb-17 07:30N 35°00' E 136°47'1 2.9
2018-Feb-17 07:00N 35°01' E 136°48'0 0.0
2018-Feb-17 06:29N 35°01' E 136°48'0 0.0
2018-Feb-17 05:59N 35°01' E 136°48'0 0.0
2018-Feb-17 05:29N 35°01' E 136°48'0 0.0
2018-Feb-17 04:59N 35°01' E 136°48'0 0.0
2018-Feb-17 04:29N 35°01' E 136°48'0 0.0
2018-Feb-17 03:59N 35°01' E 136°48'0 0.0
2018-Feb-17 03:29N 35°01' E 136°48'0 0.0
2018-Feb-17 02:59N 35°01' E 136°48'0 0.0
2018-Feb-17 02:29N 35°01' E 136°48'0 0.0
2018-Feb-17 01:59N 35°01' E 136°48'0 0.0
2018-Feb-17 01:29N 35°01' E 136°48'0 0.0
2018-Feb-17 00:59N 35°01' E 136°48'0 0.0
2018-Feb-17 00:29N 35°01' E 136°48'0 0.0
2018-Feb-16 23:59N 35°01' E 136°48'0 0.0
2018-Feb-16 23:29N 35°01' E 136°48'0 0.0
2018-Feb-16 22:59N 35°01' E 136°48'0 0.0
2018-Feb-16 22:29N 35°01' E 136°48'0 1.0
2018-Feb-16 22:00N 35°01' E 136°48'4 8.6
2018-Feb-16 21:31N 34°57' E 136°46'713.5
2018-Feb-16 21:00N 34°51' E 136°47'713.9
2018-Feb-16 20:31N 34°44' E 136°47'3 5.5
2018-Feb-16 20:00N 34°41' E 136°47'0 0.4
2018-Feb-16 19:30N 34°41' E 136°47'0 0.5
2018-Feb-16 19:00N 34°41' E 136°47'4 8.2
2018-Feb-16 18:30N 34°40' E 136°52'814.5
2018-Feb-16 17:59N 34°35' E 136°59'611.7
2018-Feb-16 17:30N 34°30' E 137°02'2414.6
2018-Feb-16 15:52N 34°08' E 136°49'616.3
2018-Feb-16 15:30N 34°04' E 136°43'1016.0
2018-Feb-16 14:52N 33°57' E 136°34'1515.2
2018-Feb-16 13:51N 33°46' E 136°22'75915.1
2018-Feb-14 11:44N 30°26' E 121°57'814.5
2018-Feb-14 11:13N 30°22' E 121°50'313.8
2018-Feb-14 10:58N 30°19' E 121°48'715.2
2018-Feb-14 10:29N 30°12' E 121°48'4 0.1
2018-Feb-12 21:37N 30°15' E 121°46'0 0.2
2018-Feb-12 21:25N 30°15' E 121°46'19 1.5
2018-Feb-12 08:52N 30°31' E 121°34'8 0.7
2018-Feb-11 21:20N 30°26' E 121°42'0 1.5
2018-Feb-11 21:00N 30°26' E 121°42'1 1.2
2018-Feb-11 20:30N 30°26' E 121°43'1 2.0
2018-Feb-11 20:00N 30°27' E 121°42'2 4.4
2018-Feb-11 19:28N 30°29' E 121°43'613.0
2018-Feb-11 18:59N 30°31' E 121°50'612.9
2018-Feb-11 18:30N 30°31' E 121°58'613.0
2018-Feb-11 18:00N 30°32' E 122°05'5 9.4
2018-Feb-11 17:30N 30°33' E 122°10'1612.3
2018-Feb-11 16:09N 30°35' E 122°30'  

Dump ship's entire track history